createdAt,value
2019-05-06T00:02:09.720Z,101691.58
2019-05-06T00:04:39.316Z,101686.94
2019-05-06T00:07:08.957Z,101687.38
2019-05-06T00:09:40.929Z,101683.48
2019-05-06T00:12:11.647Z,101688.61
2019-05-06T00:14:44.866Z,101685.59
2019-05-06T00:17:16.163Z,101688.37
2019-05-06T00:19:45.749Z,101678.98
2019-05-06T00:22:15.151Z,101680.74
2019-05-06T00:24:54.588Z,101680.23
2019-05-06T00:27:36.206Z,101678.84
2019-05-06T00:30:07.694Z,101672.86
2019-05-06T00:32:37.238Z,101678.97
2019-05-06T00:35:07.523Z,101671.85
2019-05-06T00:37:39.904Z,101671.46
2019-05-06T00:40:17.198Z,101670.58
2019-05-06T00:43:14.070Z,101669.25
2019-05-06T00:45:45.164Z,101657.88
2019-05-06T00:48:14.762Z,101660.98
2019-05-06T00:50:44.440Z,101657.19
2019-05-06T00:53:16.252Z,101656.00
2019-05-06T00:55:47.776Z,101655.73
2019-05-06T00:58:20.049Z,101650.86
2019-05-06T01:00:49.795Z,101651.25
2019-05-06T01:03:19.355Z,101653.03
2019-05-06T01:05:49.101Z,101655.34
2019-05-06T01:08:18.606Z,101655.34
2019-05-06T01:10:48.128Z,101649.17
2019-05-06T01:13:38.206Z,101658.56
2019-05-06T01:16:10.984Z,101659.97
2019-05-06T01:18:40.483Z,101648.34
2019-05-06T01:21:10.317Z,101659.88
2019-05-06T01:23:43.758Z,101649.34
2019-05-06T01:26:15.140Z,101655.08
2019-05-06T01:28:45.799Z,101648.75
2019-05-06T01:31:15.746Z,101650.02
2019-05-06T01:33:47.959Z,101648.89
2019-05-06T01:36:18.733Z,101652.97
2019-05-06T01:39:09.056Z,101658.06
2019-05-06T01:41:53.534Z,101652.28
2019-05-06T01:44:24.484Z,101648.55
2019-05-06T01:46:54.256Z,101641.49
2019-05-06T01:49:24.565Z,101641.55
2019-05-06T01:51:55.064Z,101646.53
2019-05-06T01:54:25.703Z,101642.22
2019-05-06T01:56:55.996Z,101640.97
2019-05-06T01:59:27.289Z,101648.59
2019-05-06T02:02:01.033Z,101641.89
2019-05-06T02:04:29.367Z,101645.50
2019-05-06T02:06:59.794Z,101640.91
2019-05-06T02:09:29.295Z,101641.84
2019-05-06T02:12:04.371Z,101647.83
2019-05-06T02:14:35.490Z,101644.64
2019-05-06T02:17:05.032Z,101646.39
2019-05-06T02:19:35.405Z,101643.24
2019-05-06T02:22:10.567Z,101638.23
2019-05-06T02:25:05.999Z,101639.05
2019-05-06T02:27:35.417Z,101645.34
2019-05-06T02:30:15.555Z,101645.91
2019-05-06T02:33:11.506Z,101638.77
2019-05-06T02:35:55.050Z,101635.02
2019-05-06T02:38:35.694Z,101635.05
2019-05-06T02:40:59.146Z,101634.70
2019-05-06T02:43:28.856Z,101636.92
2019-05-06T02:45:58.885Z,101630.25
2019-05-06T02:48:48.915Z,101620.03
2019-05-06T02:51:24.179Z,101624.50
2019-05-06T02:53:54.030Z,101627.70
2019-05-06T02:56:24.110Z,101627.77
2019-05-06T02:58:54.126Z,101622.09
2019-05-06T03:01:24.829Z,101620.55
2019-05-06T03:03:55.575Z,101620.70
2019-05-06T03:06:28.257Z,101617.63
2019-05-06T03:08:58.723Z,101617.58
2019-05-06T03:11:29.501Z,101612.48
2019-05-06T03:13:59.114Z,101615.25
2019-05-06T03:16:32.605Z,101616.41
2019-05-06T03:19:03.935Z,101619.61
2019-05-06T03:22:03.680Z,101613.05
2019-05-06T03:24:46.718Z,101613.05
2019-05-06T03:27:16.457Z,101622.38
2019-05-06T03:29:46.941Z,101620.60
2019-05-06T03:32:23.102Z,101619.95
2019-05-06T03:35:09.020Z,101616.85
2019-05-06T03:37:20.285Z,101617.73
2019-05-06T03:39:53.230Z,101616.75
2019-05-06T03:42:23.312Z,101613.33
2019-05-06T03:44:58.144Z,101608.20
2019-05-06T03:47:58.601Z,101613.00
2019-05-06T03:50:28.024Z,101603.39
2019-05-06T03:52:58.892Z,101605.66
2019-05-06T03:55:29.836Z,101597.99
2019-05-06T03:58:03.620Z,101596.39
2019-05-06T04:00:33.335Z,101597.27
2019-05-06T04:03:03.364Z,101602.14
2019-05-06T04:05:33.560Z,101604.78
2019-05-06T04:08:04.177Z,101603.29
2019-05-06T04:10:36.937Z,101597.39
2019-05-06T04:13:05.849Z,101599.70
2019-05-06T04:16:03.973Z,101603.22
2019-05-06T04:18:34.676Z,101605.66
2019-05-06T04:21:17.316Z,101598.64
2019-05-06T04:24:08.993Z,101603.48
2019-05-06T04:27:14.648Z,101603.88
2019-05-06T04:29:44.561Z,101600.02
2019-05-06T04:32:14.180Z,101593.51
2019-05-06T04:34:46.904Z,101587.60
2019-05-06T04:37:16.400Z,101589.25
2019-05-06T04:39:47.121Z,101589.21
2019-05-06T04:42:16.949Z,101587.36
2019-05-06T04:44:48.099Z,101586.72
2019-05-06T04:47:17.742Z,101590.06
2019-05-06T04:49:48.621Z,101585.47
2019-05-06T04:52:18.226Z,101589.92
2019-05-06T04:54:48.978Z,101596.70
2019-05-06T04:57:19.496Z,101600.16
2019-05-06T04:59:54.168Z,101595.23
2019-05-06T05:02:24.065Z,101584.57
2019-05-06T05:05:13.848Z,101588.50
2019-05-06T05:07:45.104Z,101589.44
2019-05-06T05:10:23.352Z,101582.74
2019-05-06T05:13:15.200Z,101584.01
2019-05-06T05:16:12.714Z,101578.88
2019-05-06T05:18:49.995Z,101586.09
2019-05-06T05:21:19.536Z,101577.31
2019-05-06T05:23:52.246Z,101575.32
2019-05-06T05:26:22.576Z,101573.48
2019-05-06T05:28:55.579Z,101578.61
2019-05-06T05:31:27.711Z,101580.78
2019-05-06T05:33:58.110Z,101579.13
2019-05-06T05:36:27.826Z,101588.47
2019-05-06T05:38:58.498Z,101582.07
2019-05-06T05:41:30.496Z,101590.97
2019-05-06T05:44:15.704Z,101588.78
2019-05-06T05:46:45.232Z,101590.45
2019-05-06T05:49:24.595Z,101589.33
2019-05-06T05:51:55.835Z,101587.38
2019-05-06T05:54:26.048Z,101588.64
2019-05-06T05:56:57.563Z,101593.25
2019-05-06T05:59:27.150Z,101594.63
2019-05-06T06:01:56.716Z,101602.95
2019-05-06T06:04:27.158Z,101605.81
2019-05-06T06:06:56.763Z,101606.80
2019-05-06T06:09:32.748Z,101608.13
2019-05-06T06:12:06.630Z,101605.92
2019-05-06T06:14:56.482Z,101599.20
2019-05-06T06:17:58.746Z,101594.70
2019-05-06T06:20:47.528Z,101599.61
2019-05-06T06:23:32.617Z,101600.95
2019-05-06T06:26:03.971Z,101592.95
2019-05-06T06:28:33.749Z,101592.63
2019-05-06T06:31:43.260Z,101596.42
2019-05-06T06:34:25.281Z,101596.91
2019-05-06T06:37:28.763Z,101591.28
2019-05-06T06:40:02.402Z,101591.85
2019-05-06T06:42:33.505Z,101597.47
2019-05-06T06:45:05.021Z,101594.98
2019-05-06T06:47:35.863Z,101592.09
2019-05-06T06:50:05.699Z,101601.48
2019-05-06T06:52:35.272Z,101587.69
2019-05-06T06:59:07.231Z,101587.06
2019-05-06T07:01:44.059Z,101585.71
2019-05-06T07:04:32.472Z,101581.39
2019-05-06T07:07:04.273Z,101584.75
2019-05-06T07:09:34.843Z,101579.52
2019-05-06T07:12:05.803Z,101567.31
2019-05-06T07:14:36.263Z,101570.62
2019-05-06T07:17:05.916Z,101576.55
2019-05-06T07:19:42.282Z,101570.67
2019-05-06T07:22:12.699Z,101561.98
2019-05-06T07:24:43.952Z,101563.55
2019-05-06T07:27:22.685Z,101565.63
2019-05-06T07:29:53.596Z,101563.37
2019-05-06T07:32:23.554Z,101555.18
2019-05-06T07:34:53.458Z,101563.50
2019-05-06T07:37:24.835Z,101554.33
2019-05-06T07:39:57.031Z,101554.98
2019-05-06T07:42:32.853Z,101558.05
2019-05-06T07:45:29.003Z,101555.87
2019-05-06T07:48:12.676Z,101557.62
2019-05-06T07:50:42.534Z,101552.77
2019-05-06T07:53:13.327Z,101549.71
2019-05-06T07:55:43.301Z,101543.02
2019-05-06T07:58:14.074Z,101559.09
2019-05-06T08:00:45.141Z,101552.78
2019-05-06T08:03:16.529Z,101545.48
2019-05-06T08:05:55.748Z,101557.78
2019-05-06T08:08:19.818Z,101561.75
2019-05-06T08:10:52.604Z,101559.34
2019-05-06T08:13:23.498Z,101566.33
2019-05-06T08:15:55.710Z,101565.52
2019-05-06T08:18:27.057Z,101564.37
2019-05-06T08:20:58.543Z,101572.03
2019-05-06T08:23:42.824Z,101571.27
2019-05-06T08:26:17.713Z,101576.20
2019-05-06T08:28:48.411Z,101584.16
2019-05-06T08:31:19.555Z,101579.01
2019-05-06T08:33:48.972Z,101577.84
2019-05-06T08:36:28.045Z,101574.52
2019-05-06T08:38:59.745Z,101570.84
2019-05-06T08:41:30.506Z,101567.77
2019-05-06T08:44:02.410Z,101558.05
2019-05-06T08:46:33.300Z,101563.92
2019-05-06T08:49:03.204Z,101553.00
2019-05-06T08:52:02.473Z,101561.93
2019-05-06T08:54:46.254Z,101553.54
2019-05-06T08:57:15.899Z,101568.80
2019-05-06T08:59:45.421Z,101552.87
2019-05-06T09:02:17.190Z,101558.98
2019-05-06T09:04:46.906Z,101560.12
2019-05-06T09:07:16.397Z,101559.30
2019-05-06T09:09:47.686Z,101564.44
2019-05-06T09:12:17.187Z,101557.29
2019-05-06T09:14:46.593Z,101558.83
2019-05-06T09:17:19.249Z,101557.71
2019-05-06T09:19:50.025Z,101550.20
2019-05-06T09:22:23.484Z,101557.09
2019-05-06T09:24:53.581Z,101554.45
2019-05-06T09:27:58.489Z,101543.92
2019-05-06T09:30:43.413Z,101544.88
2019-05-06T09:33:14.305Z,101541.86
2019-05-06T09:35:43.691Z,101545.76
2019-05-06T09:38:13.116Z,101567.19
2019-05-06T09:40:43.905Z,101570.62
2019-05-06T09:43:13.401Z,101567.00
2019-05-06T09:45:44.243Z,101569.23
2019-05-06T09:48:19.476Z,101567.05
2019-05-06T09:50:49.311Z,101572.29
2019-05-06T09:53:23.849Z,101565.81
2019-05-06T09:56:33.471Z,101565.41
2019-05-06T09:59:03.145Z,101562.77
2019-05-06T10:01:33.599Z,101558.69
2019-05-06T10:04:08.138Z,101558.92
2019-05-06T10:06:37.979Z,101558.19
2019-05-06T10:09:15.286Z,101564.91
2019-05-06T10:11:42.762Z,101564.17
2019-05-06T10:14:12.894Z,101555.34
2019-05-06T10:16:44.371Z,101567.14
2019-05-06T10:19:13.866Z,101578.24
2019-05-06T10:21:44.361Z,101573.50
2019-05-06T10:24:15.087Z,101585.27
2019-05-06T10:26:52.350Z,101584.98
2019-05-06T10:29:35.272Z,101590.20
2019-05-06T10:32:15.173Z,101584.22
2019-05-06T10:34:46.134Z,101577.70
2019-05-06T10:37:33.523Z,101573.70
2019-05-06T10:40:13.352Z,101570.25
2019-05-06T10:42:49.243Z,101568.91
2019-05-06T10:45:29.404Z,101563.60
2019-05-06T10:48:02.330Z,101556.49
2019-05-06T10:50:36.826Z,101546.88
2019-05-06T10:53:16.961Z,101546.53
2019-05-06T10:55:50.413Z,101542.89
2019-05-06T10:58:22.558Z,101547.38
2019-05-06T11:01:14.863Z,101538.87
2019-05-06T11:03:44.259Z,101536.91
2019-05-06T11:06:13.663Z,101533.57
2019-05-06T11:08:43.078Z,101534.40
2019-05-06T11:11:20.002Z,101543.95
2019-05-06T11:13:45.435Z,101554.48
2019-05-06T11:16:16.953Z,101561.51
2019-05-06T11:18:47.559Z,101555.00
2019-05-06T11:21:17.171Z,101552.56
2019-05-06T11:23:48.459Z,101550.98
2019-05-06T11:26:18.134Z,101551.80
2019-05-06T11:28:52.513Z,101544.31
2019-05-06T11:31:47.174Z,101557.93
2019-05-06T11:34:26.208Z,101565.70
2019-05-06T11:37:15.028Z,101580.30
2019-05-06T11:39:46.156Z,101569.57
2019-05-06T11:42:27.687Z,101563.13
2019-05-06T11:44:49.735Z,101562.61
2019-05-06T11:47:23.079Z,101561.78
2019-05-06T11:49:56.453Z,101559.70
2019-05-06T11:52:27.055Z,101559.99
2019-05-06T11:54:57.565Z,101555.31
2019-05-06T11:57:28.930Z,101554.48
2019-05-06T11:59:59.790Z,101560.48
2019-05-06T12:02:29.290Z,101559.06
2019-05-06T12:05:02.256Z,101547.02
2019-05-06T12:07:33.178Z,101547.55
2019-05-06T12:10:02.971Z,101549.72
2019-05-06T12:12:34.236Z,101566.48
2019-05-06T12:15:07.183Z,101576.13
2019-05-06T12:17:37.893Z,101575.89
2019-05-06T12:20:08.544Z,101582.59
2019-05-06T12:22:38.117Z,101579.08
2019-05-06T12:25:14.476Z,101588.70
2019-05-06T12:27:46.997Z,101587.00
2019-05-06T12:30:23.211Z,101577.88
2019-05-06T12:33:13.065Z,101582.95
2019-05-06T12:35:46.811Z,101583.48
2019-05-06T12:38:29.550Z,101579.02
2019-05-06T12:40:55.804Z,101578.28
2019-05-06T12:43:50.869Z,101581.70
2019-05-06T12:46:26.328Z,101588.98
2019-05-06T12:48:59.041Z,101594.27
2019-05-06T12:51:28.678Z,101593.05
2019-05-06T12:54:03.319Z,101590.23
2019-05-06T12:56:33.663Z,101590.88
2019-05-06T12:59:03.167Z,101586.27
2019-05-06T13:01:34.568Z,101585.05
2019-05-06T13:04:04.927Z,101584.72
2019-05-06T13:06:34.601Z,101584.03
2019-05-06T13:09:06.159Z,101588.69
2019-05-06T13:11:35.981Z,101591.53
2019-05-06T13:14:05.659Z,101584.28
2019-05-06T13:16:37.042Z,101582.39
2019-05-06T13:19:08.506Z,101583.11
2019-05-06T13:21:39.035Z,101582.32
2019-05-06T13:24:11.952Z,101586.41
2019-05-06T13:26:43.073Z,101589.81
2019-05-06T13:29:22.703Z,101590.56
2019-05-06T13:31:53.152Z,101591.11
2019-05-06T13:34:24.691Z,101581.88
2019-05-06T13:36:55.580Z,101598.70
2019-05-06T13:39:25.857Z,101593.07
2019-05-06T13:41:57.086Z,101579.75
2019-05-06T13:44:28.066Z,101589.02
2019-05-06T13:46:59.044Z,101577.50
2019-05-06T13:50:02.943Z,101579.30
2019-05-06T13:52:38.163Z,101586.63
2019-05-06T13:55:08.099Z,101587.02
2019-05-06T13:57:39.406Z,101580.80
2019-05-06T14:00:13.613Z,101586.19
2019-05-06T14:02:56.351Z,101592.01
2019-05-06T14:05:27.056Z,101580.52
2019-05-06T14:08:01.420Z,101580.87
2019-05-06T14:10:29.257Z,101583.98
2019-05-06T14:12:58.704Z,101585.13
2019-05-06T14:15:32.380Z,101575.83
2019-05-06T14:18:04.716Z,101586.59
2019-05-06T14:20:35.233Z,101588.05
2019-05-06T14:23:04.960Z,101590.48
2019-05-06T14:25:53.708Z,101596.48
2019-05-06T14:28:48.373Z,101593.58
2019-05-06T14:31:25.759Z,101598.33
2019-05-06T14:33:56.628Z,101597.27
2019-05-06T14:36:27.654Z,101604.34
2019-05-06T14:38:57.653Z,101605.03
2019-05-06T14:41:28.338Z,101607.17
2019-05-06T14:43:57.898Z,101610.83
2019-05-06T14:46:33.125Z,101610.36
2019-05-06T14:49:04.291Z,101617.12
2019-05-06T14:51:37.973Z,101609.43
2019-05-06T14:54:14.538Z,101615.05
2019-05-06T14:56:46.830Z,101616.31
2019-05-06T14:59:19.772Z,101619.54
2019-05-06T15:01:53.366Z,101617.68
2019-05-06T15:04:22.962Z,101617.77
2019-05-06T15:06:55.437Z,101610.98
2019-05-06T15:09:24.989Z,101609.15
2019-05-06T15:11:57.228Z,101609.75
2019-05-06T15:14:28.342Z,101609.43
2019-05-06T15:16:57.862Z,101611.45
2019-05-06T15:19:27.839Z,101616.02
2019-05-06T15:21:57.332Z,101609.89
2019-05-06T15:24:26.770Z,101614.13
2019-05-06T15:26:57.289Z,101604.36
2019-05-06T15:29:26.919Z,101607.91
2019-05-06T15:32:22.274Z,101613.12
2019-05-06T15:35:12.683Z,101607.27
2019-05-06T15:37:49.701Z,101608.20
2019-05-06T15:40:32.008Z,101601.93
2019-05-06T15:42:55.314Z,101607.00
2019-05-06T15:45:24.964Z,101617.75
2019-05-06T15:47:57.492Z,101604.84
2019-05-06T15:50:27.112Z,101609.84
2019-05-06T15:52:58.130Z,101607.65
2019-05-06T15:55:27.661Z,101609.77
2019-05-06T15:57:58.339Z,101601.70
2019-05-06T16:00:28.912Z,101605.66
2019-05-06T16:02:59.541Z,101609.20
2019-05-06T16:05:34.384Z,101605.48
2019-05-06T16:08:06.335Z,101603.77
2019-05-06T16:10:51.324Z,101606.03
2019-05-06T16:13:10.276Z,101611.55
2019-05-06T16:15:42.217Z,101612.97
2019-05-06T16:18:13.000Z,101612.66
2019-05-06T16:20:43.201Z,101616.14
2019-05-06T16:23:23.189Z,101611.84
2019-05-06T16:26:06.801Z,101616.61
2019-05-06T16:28:36.307Z,101614.12
2019-05-06T16:31:05.917Z,101612.72
2019-05-06T16:33:35.527Z,101613.17
2019-05-06T16:36:06.422Z,101604.75
2019-05-06T16:38:38.741Z,101608.23
2019-05-06T16:41:13.305Z,101602.87
2019-05-06T16:43:44.137Z,101594.70
2019-05-06T16:46:13.777Z,101598.12
2019-05-06T16:48:45.447Z,101604.76
2019-05-06T16:51:15.854Z,101592.17
2019-05-06T16:53:45.494Z,101593.45
2019-05-06T16:56:33.299Z,101592.81
2019-05-06T16:59:03.850Z,101594.70
2019-05-06T17:01:35.891Z,101591.81
2019-05-06T17:04:20.544Z,101595.34
2019-05-06T17:06:53.113Z,101601.95
2019-05-06T17:09:27.134Z,101599.30
2019-05-06T17:11:54.001Z,101604.41
2019-05-06T17:14:23.405Z,101604.24
2019-05-06T17:16:52.881Z,101618.30
2019-05-06T17:19:23.502Z,101613.00
2019-05-06T17:21:53.250Z,101611.99
2019-05-06T17:24:22.744Z,101623.03
2019-05-06T17:26:56.105Z,101621.46
2019-05-06T17:29:42.997Z,101614.41
2019-05-06T17:32:33.276Z,101626.00
2019-05-06T17:35:04.026Z,101619.75
2019-05-06T17:37:52.717Z,101631.72
2019-05-06T17:40:24.124Z,101629.52
2019-05-06T17:42:53.615Z,101631.14
2019-05-06T17:45:58.480Z,101625.80
2019-05-06T17:48:32.503Z,101628.84
2019-05-06T17:51:17.291Z,101639.41
2019-05-06T17:53:52.302Z,101648.23
2019-05-06T17:56:23.853Z,101641.98
2019-05-06T17:58:53.509Z,101646.36
2019-05-06T18:01:32.620Z,101651.08
2019-05-06T18:04:02.954Z,101636.75
2019-05-06T18:06:33.111Z,101652.84
2019-05-06T18:09:03.096Z,101649.39
2019-05-06T18:11:33.385Z,101648.47
2019-05-06T18:14:04.530Z,101651.33
2019-05-06T18:16:35.213Z,101647.59
2019-05-06T18:19:06.442Z,101651.85
2019-05-06T18:21:37.709Z,101649.03
2019-05-06T18:24:10.717Z,101646.70
2019-05-06T18:26:42.070Z,101647.75
2019-05-06T18:29:12.577Z,101650.00
2019-05-06T18:31:42.823Z,101642.70
2019-05-06T18:34:13.033Z,101651.58
2019-05-06T18:36:43.079Z,101650.44
2019-05-06T18:39:12.870Z,101652.28
2019-05-06T18:41:42.326Z,101654.61
2019-05-06T18:44:12.098Z,101655.33
2019-05-06T18:46:42.188Z,101656.36
2019-05-06T18:49:13.080Z,101659.25
2019-05-06T18:51:42.937Z,101660.20
2019-05-06T18:54:12.620Z,101661.20
2019-05-06T18:56:42.974Z,101663.38
2019-05-06T18:59:12.605Z,101669.43
2019-05-06T19:01:43.309Z,101668.17
2019-05-06T19:04:27.919Z,101671.33
2019-05-06T19:07:09.569Z,101672.02
2019-05-06T19:09:56.331Z,101674.87
2019-05-06T19:12:34.575Z,101674.48
2019-05-06T19:14:57.031Z,101675.88
2019-05-06T19:17:26.436Z,101681.66
2019-05-06T19:19:56.082Z,101678.14
2019-05-06T19:22:25.614Z,101682.70
2019-05-06T19:24:55.006Z,101681.73
2019-05-06T19:27:25.098Z,101685.33
2019-05-06T19:29:54.801Z,101687.13
2019-05-06T19:32:24.552Z,101689.19
2019-05-06T19:34:54.218Z,101689.97
2019-05-06T19:37:23.622Z,101686.23
2019-05-06T19:39:53.040Z,101689.00
2019-05-06T19:42:24.073Z,101692.58
2019-05-06T19:44:53.493Z,101695.03
2019-05-06T19:47:22.909Z,101697.38
2019-05-06T19:49:53.332Z,101693.98
2019-05-06T19:52:25.005Z,101700.01
2019-05-06T19:54:54.008Z,101697.27
2019-05-06T19:57:23.490Z,101696.43
2019-05-06T19:59:52.915Z,101699.55
2019-05-06T20:02:25.537Z,101699.52
2019-05-06T20:04:58.046Z,101693.52
2019-05-06T20:07:43.091Z,101698.10
2019-05-06T20:10:47.003Z,101695.75
2019-05-06T20:13:16.439Z,101704.47
2019-05-06T20:15:45.799Z,101706.45
2019-05-06T20:18:15.384Z,101700.19
2019-05-06T20:20:44.748Z,101704.19
2019-05-06T20:23:14.151Z,101706.52
2019-05-06T20:25:45.019Z,101704.77
2019-05-06T20:28:14.737Z,101697.28
2019-05-06T20:30:53.839Z,101694.92
2019-05-06T20:33:23.383Z,101695.38
2019-05-06T20:35:52.946Z,101691.39
2019-05-06T20:38:23.158Z,101694.64
2019-05-06T20:40:52.841Z,101690.13
2019-05-06T20:43:24.047Z,101689.38
2019-05-06T20:45:53.755Z,101692.14
2019-05-06T20:48:23.607Z,101685.23
2019-05-06T20:50:53.205Z,101694.28
2019-05-06T20:53:23.350Z,101690.58
2019-05-06T20:55:53.352Z,101695.77
2019-05-06T20:58:23.160Z,101694.98
2019-05-06T21:00:52.765Z,101705.20
2019-05-06T21:03:22.412Z,101709.84
2019-05-06T21:05:51.971Z,101713.78
2019-05-06T21:08:22.147Z,101726.10
2019-05-06T21:10:52.878Z,101717.01
2019-05-06T21:13:31.976Z,101711.77
2019-05-06T21:15:55.051Z,101708.23
2019-05-06T21:18:27.409Z,101707.62
2019-05-06T21:20:57.007Z,101709.79
2019-05-06T21:23:26.598Z,101708.59
2019-05-06T21:25:56.049Z,101710.31
2019-05-06T21:28:25.555Z,101711.31
2019-05-06T21:30:55.095Z,101711.61
2019-05-06T21:33:25.112Z,101710.80
2019-05-06T21:35:54.520Z,101709.11
2019-05-06T21:38:23.993Z,101709.34
2019-05-06T21:40:53.398Z,101713.84
2019-05-06T21:43:22.921Z,101707.62
2019-05-06T21:45:54.156Z,101714.97
2019-05-06T21:48:23.589Z,101713.28
2019-05-06T21:50:53.086Z,101712.88
2019-05-06T21:53:23.084Z,101708.80
2019-05-06T21:55:52.720Z,101708.29
2019-05-06T21:58:23.110Z,101708.35
2019-05-06T22:01:05.555Z,101709.68
2019-05-06T22:03:35.003Z,101707.09
2019-05-06T22:06:04.701Z,101701.77
2019-05-06T22:08:34.164Z,101701.92
2019-05-06T22:11:03.635Z,101691.75
2019-05-06T22:13:33.519Z,101690.48
2019-05-06T22:16:04.760Z,101691.03
2019-05-06T22:18:34.593Z,101688.44
2019-05-06T22:21:15.300Z,101699.55
2019-05-06T22:23:52.889Z,101696.77
2019-05-06T22:26:23.116Z,101695.34
2019-05-06T22:28:53.178Z,101690.85
2019-05-06T22:31:24.973Z,101692.09
2019-05-06T22:33:56.041Z,101694.45
2019-05-06T22:36:26.363Z,101692.55
2019-05-06T22:38:55.991Z,101686.87
2019-05-06T22:41:25.802Z,101689.13
2019-05-06T22:43:55.275Z,101686.55
2019-05-06T22:46:26.418Z,101691.06
2019-05-06T22:48:55.953Z,101690.76
2019-05-06T22:51:25.423Z,101676.61
2019-05-06T22:53:54.827Z,101682.31
2019-05-06T22:56:24.418Z,101688.82
2019-05-06T22:58:53.816Z,101688.00
2019-05-06T23:01:43.193Z,101691.48
2019-05-06T23:04:14.262Z,101698.06
2019-05-06T23:06:43.700Z,101698.48
2019-05-06T23:09:14.127Z,101692.36
2019-05-06T23:11:43.530Z,101700.47
2019-05-06T23:14:27.592Z,101695.27
2019-05-06T23:16:44.506Z,101697.31
2019-05-06T23:19:13.864Z,101698.55
2019-05-06T23:21:43.246Z,101695.95
2019-05-06T23:24:13.283Z,101699.06
2019-05-06T23:26:42.746Z,101698.10
2019-05-06T23:29:12.974Z,101698.05
2019-05-06T23:31:42.744Z,101696.23
2019-05-06T23:34:12.666Z,101703.48
2019-05-06T23:37:23.297Z,101695.64
2019-05-06T23:40:42.814Z,101698.94
2019-05-06T23:43:48.036Z,101698.10
2019-05-06T23:46:53.270Z,101700.02
2019-05-06T23:49:58.468Z,101703.48
2019-05-06T23:53:03.962Z,101702.20
2019-05-06T23:56:09.581Z,101700.63
2019-05-06T23:58:39.310Z,101703.78
